Time;durP1;ratioP1;P1;durP2;ratioP2;P2;SDS_P1;SDS_P2;PMS_P1;PMS_P2;Temp;Humidity;BMP_temperature;BMP_pressure;BME280_temperature;BME280_humidity;BME280_pressure;Samples;Min_cycle;Max_cycle;Signal;HPM_P1;HPM_P2
2022/09/22 00:31:14;;;;;;;9.55;6.18;;;10.00;99.90;;;;;;4893083;29;20189;-86
2022/09/22 00:34:20;;;;;;;11.75;6.75;;;10.00;99.90;;;;;;4895377;29;20096;-85
2022/09/22 00:54:32;;;;;;;;;;;;;;;;;;;;;
2022/09/22 00:57:27;;;;;;;11.65;6.63;;;10.10;99.90;;;;;;4822817;29;20026;-84
2022/09/22 00:59:54;;;;;;;9.85;6.00;;;10.10;99.90;;;;;;4800977;29;20038;-86
2022/09/22 01:03:04;;;;;;;12.80;6.40;;;10.10;99.90;;;;;;4795093;29;20043;-86
2022/09/22 01:05:40;;;;;;;11.32;6.35;;;10.10;99.90;;;;;;4833129;29;20086;-86
2022/09/22 01:11:28;;;;;;;11.75;7.00;;;10.10;99.90;;;;;;4840239;29;20028;-87
2022/09/22 01:27:39;;;;;;;13.45;6.75;;;10.00;99.90;;;;;;4917071;29;20399;-85
2022/09/22 01:30:24;;;;;;;13.52;6.95;;;10.00;99.90;;;;;;4915568;29;20028;-85
2022/09/22 01:33:06;;;;;;;13.02;6.75;;;10.00;99.90;;;;;;4900120;29;20025;-86
2022/09/22 01:36:04;;;;;;;10.48;6.68;;;9.90;99.90;;;;;;4900045;29;20024;-86
2022/09/22 01:49:33;;;;;;;12.77;8.02;;;9.80;99.90;;;;;;4853641;29;20032;-86
2022/09/22 01:59:39;;;;;;;13.53;7.83;;;9.70;99.90;;;;;;4858962;29;20410;-86
2022/09/22 02:13:27;;;;;;;;;;;;;;;;;;;;;
2022/09/22 02:56:28;;;;;;;12.38;7.95;;;9.40;99.90;;;;;;4916494;29;20031;-88
2022/09/22 02:59:34;;;;;;;13.65;7.35;;;9.40;99.90;;;;;;4913077;29;20072;-86
2022/09/22 03:02:12;;;;;;;12.82;7.50;;;9.40;99.90;;;;;;4902155;29;20032;-86
2022/09/22 03:04:38;;;;;;;14.60;7.93;;;9.30;99.90;;;;;;4901839;29;20345;-85
2022/09/22 03:07:16;;;;;;;11.30;7.65;;;9.40;99.90;;;;;;4902597;29;20516;-87
2022/09/22 03:09:49;;;;;;;13.77;7.97;;;9.30;99.90;;;;;;4903077;29;20032;-88
2022/09/22 03:12:15;;;;;;;12.65;7.70;;;9.30;99.90;;;;;;4902691;29;20452;-85
2022/09/22 03:14:41;;;;;;;14.80;8.25;;;9.30;99.90;;;;;;4919229;29;20076;-86
2022/09/22 03:17:12;;;;;;;13.70;8.80;;;9.40;99.90;;;;;;4902629;29;20024;-85
2022/09/22 03:20:05;;;;;;;15.52;8.05;;;9.30;99.90;;;;;;4902294;29;20123;-86
2022/09/22 03:22:31;;;;;;;12.77;8.65;;;9.20;99.90;;;;;;4864002;29;20094;-85
2022/09/22 03:24:57;;;;;;;14.38;9.00;;;9.30;99.90;;;;;;4863935;29;20049;-87
2022/09/22 03:27:23;;;;;;;15.25;8.48;;;9.20;99.90;;;;;;4864105;29;20048;-86
2022/09/22 03:29:49;;;;;;;14.90;8.50;;;9.30;99.90;;;;;;4879442;29;20025;-86
2022/09/22 03:32:15;;;;;;;14.57;9.07;;;9.20;99.90;;;;;;4879427;29;20040;-89
2022/09/22 03:34:41;;;;;;;17.25;9.38;;;9.20;99.90;;;;;;4879891;29;20033;-86
2022/09/22 03:37:06;;;;;;;17.38;9.18;;;9.20;99.90;;;;;;4876345;29;20119;-85
2022/09/22 03:39:32;;;;;;;16.88;10.18;;;9.20;99.90;;;;;;4871909;29;20081;-88
2022/09/22 03:41:58;;;;;;;19.13;9.77;;;9.20;99.90;;;;;;4845181;29;20373;-87
2022/09/22 03:44:25;;;;;;;14.52;9.10;;;9.20;99.90;;;;;;4857767;29;20066;-85
2022/09/22 03:46:51;;;;;;;14.40;9.00;;;9.20;99.90;;;;;;4846346;29;20034;-86
2022/09/22 03:49:17;;;;;;;15.63;8.88;;;9.20;99.90;;;;;;4857515;29;20037;-87
2022/09/22 03:51:43;;;;;;;14.30;9.35;;;9.20;99.90;;;;;;4874236;29;20425;-86
2022/09/22 03:54:09;;;;;;;16.30;8.73;;;9.20;99.90;;;;;;4845092;29;20073;-85
2022/09/22 03:56:35;;;;;;;13.85;9.25;;;9.20;99.90;;;;;;4859099;29;20128;-86
2022/09/22 03:59:00;;;;;;;18.08;9.00;;;9.20;99.90;;;;;;4880885;29;20042;-87
2022/09/22 04:01:26;;;;;;;13.40;8.60;;;9.10;99.90;;;;;;4918651;29;20119;-85
2022/09/22 04:03:52;;;;;;;18.60;9.20;;;9.20;99.90;;;;;;4901806;29;20130;-85
2022/09/22 04:06:18;;;;;;;20.10;9.63;;;9.20;99.90;;;;;;4901822;29;20028;-86
2022/09/22 04:08:44;;;;;;;16.77;10.00;;;9.10;99.90;;;;;;4918679;29;20024;-85
2022/09/22 04:11:10;;;;;;;17.48;9.95;;;9.10;99.90;;;;;;4918383;29;20020;-87
2022/09/22 04:13:36;;;;;;;21.15;11.88;;;9.10;99.90;;;;;;4919081;29;20345;-85
2022/09/22 04:28:23;;;;;;;17.60;10.18;;;9.00;99.90;;;;;;4822730;29;20046;-86
2022/09/22 04:38:51;;;;;;;22.55;12.77;;;8.90;99.90;;;;;;4750873;30;20027;-86
2022/09/22 04:54:59;;;;;;;27.58;18.95;;;8.90;99.90;;;;;;4757586;30;20072;-84
2022/09/22 04:57:25;;;;;;;46.42;30.85;;;8.90;99.90;;;;;;4768475;30;20139;-85
2022/09/22 05:19:55;;;;;;;30.30;16.05;;;8.90;99.90;;;;;;4840811;29;20029;-86
2022/09/22 05:23:04;;;;;;;25.98;13.13;;;8.90;99.90;;;;;;4824528;29;20038;-84
2022/09/22 05:25:33;;;;;;;22.25;11.45;;;8.90;99.90;;;;;;4805674;29;20070;-84
2022/09/22 05:38:54;;;;;;;16.95;10.35;;;9.00;99.90;;;;;;4840143;29;20450;-85
2022/09/22 05:49:22;;;;;;;20.15;9.77;;;9.10;99.90;;;;;;4820465;29;20043;-86
2022/09/22 05:58:36;;;;;;;16.70;11.00;;;9.30;99.90;;;;;;4813518;29;20394;-85
2022/09/22 06:01:03;;;;;;;27.65;12.38;;;9.40;99.90;;;;;;4805635;29;20047;-85
2022/09/22 06:03:29;;;;;;;15.48;10.02;;;9.40;99.90;;;;;;4814989;29;20536;-86
2022/09/22 06:05:54;;;;;;;27.02;12.73;;;9.50;99.90;;;;;;4813098;29;20130;-90
2022/09/22 06:08:20;;;;;;;33.13;13.77;;;9.50;99.90;;;;;;4798576;29;20107;-84
2022/09/22 06:10:49;;;;;;;26.88;14.45;;;9.50;99.90;;;;;;4861807;29;20076;-84
2022/09/22 06:13:15;;;;;;;28.35;14.48;;;9.50;99.90;;;;;;4877386;29;20574;-87
2022/09/22 06:15:45;;;;;;;31.60;16.95;;;9.60;99.90;;;;;;4882834;29;20033;-87
2022/09/22 06:18:12;;;;;;;23.67;13.15;;;9.60;99.90;;;;;;4889532;29;20048;-84
2022/09/22 06:20:38;;;;;;;24.10;13.30;;;9.70;99.90;;;;;;4873464;29;20036;-87
2022/09/22 06:23:04;;;;;;;26.83;12.07;;;9.80;99.90;;;;;;4870166;29;20044;-87
2022/09/22 06:25:30;;;;;;;20.52;11.60;;;9.90;99.90;;;;;;4882385;29;20119;-87
2022/09/22 06:28:06;;;;;;;14.95;9.23;;;10.00;99.90;;;;;;4881713;29;20044;-87
2022/09/22 06:30:34;;;;;;;14.00;8.10;;;10.10;99.90;;;;;;4888149;29;20036;-85
2022/09/22 06:33:00;;;;;;;9.98;7.55;;;10.30;99.90;;;;;;4903475;29;20032;-86
2022/09/22 06:35:35;;;;;;;11.98;6.40;;;10.40;99.90;;;;;;4903368;29;20076;-85
2022/09/22 06:38:03;;;;;;;14.57;7.03;;;10.60;99.90;;;;;;4903111;29;20035;-86
2022/09/22 06:40:31;;;;;;;11.20;6.05;;;10.70;99.90;;;;;;4902224;29;20559;-84
2022/09/22 06:43:06;;;;;;;8.63;6.05;;;10.80;99.90;;;;;;4902777;29;20417;-86
2022/09/22 06:45:34;;;;;;;12.13;5.85;;;10.90;99.90;;;;;;4902918;29;20054;-86
2022/09/22 06:48:16;;;;;;;7.95;5.97;;;11.10;99.90;;;;;;4919990;29;20028;-85
2022/09/22 06:50:50;;;;;;;18.40;9.47;;;11.20;99.90;;;;;;4920234;29;20058;-84
2022/09/22 06:53:17;;;;;;;11.73;7.85;;;11.30;99.90;;;;;;4919875;29;20271;-86
2022/09/22 06:55:44;;;;;;;8.82;6.13;;;11.50;99.90;;;;;;4902845;29;20459;-85
2022/09/22 06:58:11;;;;;;;10.63;7.85;;;11.60;99.90;;;;;;4902875;29;20131;-86
2022/09/22 07:00:40;;;;;;;17.38;7.15;;;11.60;99.90;;;;;;4905980;29;20039;-87
2022/09/22 07:03:19;;;;;;;14.38;7.47;;;11.80;99.90;;;;;;4919664;29;20076;-85
2022/09/22 07:06:06;;;;;;;7.97;5.70;;;11.90;99.90;;;;;;4900595;29;20531;-89
2022/09/22 07:11:22;;;;;;;17.63;9.95;;;12.10;99.90;;;;;;4905355;29;20044;-87
2022/09/22 07:13:52;;;;;;;23.27;12.90;;;12.10;99.90;;;;;;4902690;29;20371;-86
2022/09/22 07:16:23;;;;;;;12.68;7.72;;;12.30;99.90;;;;;;4902515;29;20059;-88
2022/09/22 07:18:59;;;;;;;13.35;6.45;;;12.40;99.90;;;;;;4902494;29;20024;-85
2022/09/22 07:21:34;;;;;;;12.43;5.88;;;12.40;99.90;;;;;;4919852;29;20106;-85
2022/09/22 07:23:59;;;;;;;10.30;5.43;;;12.50;99.90;;;;;;4910248;29;20026;-85
2022/09/22 07:26:39;;;;;;;14.82;5.93;;;12.60;99.90;;;;;;4919524;29;20044;-85
2022/09/22 07:29:12;;;;;;;8.88;4.90;;;12.80;99.90;;;;;;4920408;29;20431;-85
2022/09/22 07:31:54;;;;;;;12.57;5.50;;;13.10;99.90;;;;;;4902621;29;20036;-86
2022/09/22 07:34:25;;;;;;;10.77;4.90;;;13.00;99.90;;;;;;4903515;29;20020;-85
2022/09/22 07:36:52;;;;;;;8.48;5.30;;;13.20;99.90;;;;;;4901414;29;20028;-88
2022/09/22 07:39:55;;;;;;;7.90;5.20;;;13.30;99.90;;;;;;4919350;29;20148;-86
2022/09/22 07:43:06;;;;;;;9.07;5.63;;;13.40;99.90;;;;;;4902218;29;20440;-85
2022/09/22 07:46:24;;;;;;;8.75;4.85;;;13.60;99.90;;;;;;4899127;29;20039;-86
2022/09/22 07:52:12;;;;;;;10.77;5.22;;;13.60;99.90;;;;;;4900486;29;20092;-85
2022/09/22 07:54:44;;;;;;;9.13;5.05;;;13.60;99.90;;;;;;4900547;29;20028;-83
2022/09/22 07:58:07;;;;;;;8.38;4.85;;;13.70;99.90;;;;;;4883794;29;20060;-84
2022/09/22 08:14:26;;;;;;;8.90;4.30;;;14.20;99.90;;;;;;4804526;29;20041;-84
2022/09/22 08:17:44;;;;;;;9.00;5.38;;;14.40;99.90;;;;;;4820906;29;20070;-84
2022/09/22 08:24:04;;;;;;;;;;;;;;;;;;;;;
2022/09/22 08:26:54;;;;;;;7.80;4.78;;;14.50;99.90;;;;;;4824437;29;20038;-85
2022/09/22 08:29:20;;;;;;;7.80;5.45;;;14.70;99.90;;;;;;4823029;29;20034;-86
2022/09/22 08:32:16;;;;;;;6.20;4.53;;;14.80;99.90;;;;;;4823167;29;20045;-86
2022/09/22 08:34:44;;;;;;;6.10;4.10;;;14.90;99.90;;;;;;4815518;29;20471;-88
2022/09/22 08:37:11;;;;;;;7.38;3.55;;;15.00;99.90;;;;;;4843891;29;20049;-85
2022/09/22 08:39:37;;;;;;;7.55;4.57;;;15.10;99.90;;;;;;4859970;29;20038;-85
2022/09/22 08:42:20;;;;;;;6.97;4.07;;;15.30;99.90;;;;;;4860321;29;20033;-84
2022/09/22 08:44:56;;;;;;;8.05;4.35;;;15.20;99.90;;;;;;4892455;29;20149;-86
2022/09/22 08:54:25;;;;;;;5.50;4.35;;;15.20;99.90;;;;;;4917493;29;20023;-87
2022/09/22 09:00:53;;;;;;;8.38;5.55;;;15.10;99.90;;;;;;4878134;29;20032;-86
2022/09/22 09:04:10;;;;;;;7.10;4.85;;;15.20;99.90;;;;;;4860269;29;20050;-87
2022/09/22 09:10:09;;;;;;;9.20;4.90;;;15.90;99.90;;;;;;4803394;29;20124;-85
2022/09/22 09:12:54;;;;;;;;;;;16.10;99.90;;;;;;4801511;29;20039;-84
2022/09/22 09:18:50;;;;;;;7.93;4.80;;;16.00;99.90;;;;;;4791449;29;20117;-85
2022/09/22 09:21:16;;;;;;;11.68;5.90;;;16.10;99.90;;;;;;4804504;29;20043;-85
2022/09/22 09:23:48;;;;;;;11.63;4.90;;;16.30;99.90;;;;;;4805041;29;20043;-84
2022/09/22 09:26:16;;;;;;;;;;;16.40;99.90;;;;;;4805658;29;20055;-85
2022/09/22 09:28:56;;;;;;;7.03;4.10;;;16.10;99.90;;;;;;4822507;29;19959;-86
2022/09/22 09:31:33;;;;;;;8.75;4.00;;;16.10;99.90;;;;;;4823247;29;20057;-85
2022/09/22 09:34:06;;;;;;;6.85;5.22;;;16.20;99.90;;;;;;4823207;29;20083;-89
2022/09/22 09:36:36;;;;;;;7.30;4.22;;;16.30;99.90;;;;;;4837427;29;20061;-87
2022/09/22 09:39:18;;;;;;;4.30;3.50;;;16.70;99.90;;;;;;4899247;29;20360;-86
2022/09/22 09:41:47;;;;;;;;;;;16.50;99.90;;;;;;4918254;29;20032;-87
2022/09/22 09:44:25;;;;;;;7.90;4.28;;;16.60;99.90;;;;;;4901074;29;19990;-87
2022/09/22 09:47:10;;;;;;;7.53;4.63;;;17.00;99.90;;;;;;4901261;29;20035;-86
2022/09/22 09:49:41;;;;;;;4.93;3.80;;;17.20;99.90;;;;;;4900837;29;20420;-86
2022/09/22 09:52:54;;;;;;;7.35;4.35;;;17.50;99.90;;;;;;4900445;29;20119;-88
2022/09/22 10:01:31;;;;;;;4.88;3.60;;;17.70;95.60;;;;;;4884740;29;20468;-89
2022/09/22 10:03:57;;;;;;;7.00;5.07;;;18.00;98.20;;;;;;4899981;29;20020;-83
2022/09/22 10:10:50;;;;;;;9.48;4.50;;;17.90;88.70;;;;;;4877235;29;20041;-85
2022/09/22 10:13:22;;;;;;;11.63;7.35;;;17.80;90.90;;;;;;4877360;29;20061;-87
2022/09/22 10:16:19;;;;;;;6.25;4.10;;;18.00;91.10;;;;;;4877714;29;20025;-84
2022/09/22 10:22:27;;;;;;;6.20;4.78;;;17.70;89.60;;;;;;4839949;29;20125;-84
2022/09/22 10:25:06;;;;;;;8.32;4.80;;;17.60;91.00;;;;;;4840162;29;20034;-84
2022/09/22 10:31:23;;;;;;;9.20;5.40;;;17.40;92.10;;;;;;4835254;29;20065;-86
2022/09/22 10:37:44;;;;;;;5.63;3.70;;;18.00;91.60;;;;;;4859238;29;20104;-85
2022/09/22 10:40:17;;;;;;;7.50;3.00;;;17.60;88.30;;;;;;4806606;29;20034;-85
2022/09/22 10:43:46;;;;;;;4.32;3.20;;;18.00;89.00;;;;;;4806462;29;20037;-85
2022/09/22 10:46:49;;;;;;;6.20;3.20;;;18.20;89.70;;;;;;4763079;30;20047;-86
2022/09/22 10:49:56;;;;;;;6.35;4.97;;;18.50;90.00;;;;;;4749994;30;20039;-87
2022/09/22 11:16:42;;;;;;;6.07;3.63;;;20.50;76.00;;;;;;4784782;30;20026;-88
2022/09/22 11:23:17;;;;;;;;;;;;;;;;;;;;;
2022/09/22 11:40:13;;;;;;;4.18;3.42;;;19.30;72.40;;;;;;4770887;30;20030;-87
2022/09/22 11:46:54;;;;;;;4.68;4.18;;;19.50;72.40;;;;;;4700055;30;20085;-87
2022/09/22 12:16:58;;;;;;;5.03;3.77;;;21.10;66.00;;;;;;4805414;29;20017;-89
2022/09/22 12:19:54;;;;;;;4.68;3.58;;;21.50;75.30;;;;;;4850754;29;20284;-87
2022/09/22 12:23:15;;;;;;;7.00;4.50;;;20.60;64.50;;;;;;4882917;29;20047;-88
2022/09/22 12:36:46;;;;;;;;;;;;;;;;;;;;;
2022/09/22 12:52:50;;;;;;;;;;;;;;;;;;;;;
2022/09/22 12:56:01;;;;;;;4.28;2.90;;;20.50;57.20;;;;;;4897128;29;20106;-88
2022/09/22 12:58:57;;;;;;;9.27;5.38;;;20.90;60.30;;;;;;4896849;29;20031;-87
2022/09/22 13:02:36;;;;;;;8.10;4.45;;;20.80;58.40;;;;;;4897279;29;20121;-87
2022/09/22 13:08:30;;;;;;;12.95;6.45;;;19.70;56.60;;;;;;4895935;29;20043;-87
2022/09/22 13:11:09;;;;;;;6.40;4.28;;;19.90;57.00;;;;;;4897052;29;20040;-87
2022/09/22 13:14:22;;;;;;;15.55;4.85;;;19.80;55.70;;;;;;4881245;29;20379;-87
2022/09/22 13:17:35;;;;;;;;;;;;;;;;;;;;;
2022/09/22 13:20:53;;;;;;;4.50;3.67;;;20.10;58.70;;;;;;4896165;29;20045;-87
2022/09/22 13:24:23;;;;;;;7.25;3.38;;;20.40;59.30;;;;;;4880994;29;20024;-87
2022/09/22 13:27:47;;;;;;;3.70;2.60;;;20.60;55.70;;;;;;4880665;29;20028;-88
2022/09/22 13:33:01;;;;;;;3.53;2.95;;;20.40;54.00;;;;;;4924533;29;20152;-87
2022/09/22 13:35:48;;;;;;;5.70;3.30;;;20.60;55.20;;;;;;4919701;29;20122;-86
2022/09/22 13:45:22;;;;;;;5.97;4.18;;;19.80;54.50;;;;;;4859255;29;20033;-87
2022/09/22 13:47:54;;;;;;;4.50;3.63;;;20.10;56.30;;;;;;4843809;29;20036;-87
2022/09/22 13:50:20;;;;;;;;;;;20.20;52.60;;;;;;4844674;29;20457;-87
2022/09/22 13:52:49;;;;;;;17.63;9.55;;;20.60;54.50;;;;;;4843705;29;19961;-87
2022/09/22 13:55:23;;;;;;;5.57;3.10;;;20.70;54.90;;;;;;4859166;29;20040;-87
2022/09/22 13:57:50;;;;;;;12.00;4.20;;;20.80;52.10;;;;;;4843980;29;20045;-87
2022/09/22 14:00:49;;;;;;;5.07;3.03;;;20.60;51.70;;;;;;4843695;29;20089;-88
2022/09/22 14:03:19;;;;;;;4.38;3.00;;;20.50;51.20;;;;;;4843669;29;20090;-87
2022/09/22 14:05:54;;;;;;;5.75;4.18;;;20.20;54.70;;;;;;4843583;29;20034;-88
2022/09/22 14:08:27;;;;;;;8.30;3.50;;;20.20;54.10;;;;;;4859446;29;20033;-88
2022/09/22 14:10:57;;;;;;;4.93;3.58;;;20.10;55.00;;;;;;4843326;29;20049;-87
2022/09/22 14:13:51;;;;;;;6.15;3.72;;;19.80;55.60;;;;;;4859018;29;20042;-87
2022/09/22 14:16:38;;;;;;;7.10;3.60;;;19.40;56.50;;;;;;4858999;29;20090;-88
2022/09/22 14:19:12;;;;;;;6.10;3.97;;;19.50;54.60;;;;;;4843710;29;20576;-87
2022/09/22 14:22:01;;;;;;;47.63;17.00;;;19.70;55.20;;;;;;4862141;29;20045;-88
2022/09/22 14:24:29;;;;;;;19.95;7.75;;;19.90;55.40;;;;;;4877541;29;20037;-87
2022/09/22 14:27:04;;;;;;;9.88;4.78;;;20.10;57.00;;;;;;4877516;29;20445;-89
2022/09/22 14:29:37;;;;;;;5.20;3.20;;;20.30;57.80;;;;;;4877430;29;20116;-89
2022/09/22 14:32:43;;;;;;;18.42;10.75;;;20.40;57.00;;;;;;4877465;29;20104;-88
2022/09/22 14:35:36;;;;;;;90.18;30.42;;;20.30;56.10;;;;;;4821870;29;20422;-88
2022/09/22 14:38:14;;;;;;;57.22;24.08;;;19.90;57.80;;;;;;4822319;29;20058;-87
2022/09/22 14:40:53;;;;;;;20.80;9.13;;;19.60;58.90;;;;;;4852032;29;20033;-87
2022/09/22 14:43:56;;;;;;;10.05;6.68;;;19.10;60.10;;;;;;4846068;29;20037;-88
2022/09/22 14:53:29;;;;;;;47.60;20.02;;;18.30;63.60;;;;;;4880935;29;20560;-88
2022/09/22 14:57:06;;;;;;;17.13;10.13;;;18.20;64.30;;;;;;4880725;29;20032;-88
2022/09/22 15:02:32;;;;;;;14.57;7.70;;;18.10;65.40;;;;;;4789589;30;20057;-85
2022/09/22 15:05:02;;;;;;;34.65;19.17;;;18.10;61.40;;;;;;4789212;30;20047;-89
2022/09/22 15:07:44;;;;;;;32.83;16.75;;;17.90;61.00;;;;;;4774145;30;20047;-88
2022/09/22 15:10:23;;;;;;;8.80;5.80;;;17.90;62.80;;;;;;4791119;29;20509;-88
2022/09/22 15:12:50;;;;;;;9.55;5.07;;;17.80;61.60;;;;;;4806972;29;20031;-88
2022/09/22 15:15:23;;;;;;;7.70;5.00;;;17.80;60.40;;;;;;4806996;29;20031;-88
2022/09/22 15:18:15;;;;;;;8.82;5.35;;;17.80;59.50;;;;;;4807099;29;20379;-88
2022/09/22 15:24:25;;;;;;;12.32;6.65;;;17.70;59.90;;;;;;4807204;29;20038;-89
2022/09/22 15:27:46;;;;;;;5.85;4.22;;;17.70;62.40;;;;;;4814524;29;20054;-88
2022/09/22 15:31:17;;;;;;;;;;;;;;;;;;;;;
2022/09/22 15:34:06;;;;;;;4.88;3.97;;;17.60;61.60;;;;;;4841674;29;20060;-88
2022/09/22 15:36:59;;;;;;;7.38;3.97;;;17.50;62.00;;;;;;4842678;29;20054;-88
2022/09/22 15:39:27;;;;;;;6.90;3.83;;;17.50;62.60;;;;;;4842900;29;20042;-87
2022/09/22 15:45:32;;;;;;;7.72;3.70;;;17.30;61.90;;;;;;4843046;29;20097;-87
2022/09/22 15:48:26;;;;;;;11.85;6.32;;;17.30;63.50;;;;;;4840444;29;20061;-89
2022/09/22 15:51:57;;;;;;;10.05;4.75;;;17.20;63.40;;;;;;4842534;29;20049;-88
2022/09/22 15:54:25;;;;;;;15.52;7.47;;;17.10;65.50;;;;;;4810496;29;20038;-90
2022/09/22 15:56:53;;;;;;;28.27;13.18;;;17.00;64.90;;;;;;4842849;29;20037;-89
2022/09/22 15:59:26;;;;;;;19.65;11.05;;;17.00;68.10;;;;;;4842679;29;20179;-88
2022/09/22 16:02:01;;;;;;;10.63;4.50;;;16.90;69.20;;;;;;4860247;29;20037;-92
2022/09/22 16:04:44;;;;;;;3.40;2.47;;;16.70;70.10;;;;;;4921792;29;20463;-86
2022/09/22 16:07:12;;;;;;;7.03;2.83;;;16.40;66.90;;;;;;4921761;29;20055;-86
2022/09/22 16:09:38;;;;;;;4.50;2.92;;;16.20;68.70;;;;;;4921137;29;20063;-88
2022/09/22 16:12:11;;;;;;;6.18;3.55;;;15.90;68.10;;;;;;4905806;29;20487;-89
2022/09/22 16:14:40;;;;;;;3.63;2.10;;;15.60;66.70;;;;;;4902448;29;20051;-86
2022/09/22 16:17:06;;;;;;;4.38;1.92;;;15.30;68.60;;;;;;4902378;29;20515;-87
2022/09/22 16:19:32;;;;;;;3.00;1.80;;;15.20;70.50;;;;;;4919145;29;20053;-87
2022/09/22 16:21:58;;;;;;;3.53;2.70;;;15.10;72.20;;;;;;4902115;29;20028;-86
2022/09/22 16:24:26;;;;;;;14.55;7.28;;;15.10;74.10;;;;;;4902364;29;20035;-87
2022/09/22 16:26:53;;;;;;;10.85;7.00;;;14.80;74.30;;;;;;4902221;29;20030;-86
2022/09/22 16:29:18;;;;;;;24.73;15.07;;;14.80;76.40;;;;;;4900839;29;20032;-85
2022/09/22 16:31:44;;;;;;;7.97;4.15;;;14.80;78.10;;;;;;4918413;29;20036;-84
2022/09/22 16:34:10;;;;;;;16.75;9.93;;;14.80;77.00;;;;;;4917584;29;20416;-86
2022/09/22 16:36:38;;;;;;;9.93;5.00;;;14.60;77.30;;;;;;4901452;29;20419;-86
2022/09/22 16:39:04;;;;;;;37.05;20.10;;;14.60;78.90;;;;;;4901220;29;20039;-86
2022/09/22 16:41:32;;;;;;;33.72;19.92;;;14.60;84.10;;;;;;4901081;29;20039;-87
2022/09/22 16:43:59;;;;;;;32.75;14.45;;;14.50;87.70;;;;;;4917888;29;20460;-86
2022/09/22 16:46:29;;;;;;;29.80;19.33;;;14.60;90.40;;;;;;4900982;29;20099;-87
2022/09/22 16:48:57;;;;;;;19.58;11.80;;;14.60;91.70;;;;;;4901091;29;20028;-86
2022/09/22 16:51:23;;;;;;;42.50;24.45;;;14.50;94.40;;;;;;4900614;29;20387;-86
2022/09/22 16:53:51;;;;;;;25.80;14.68;;;14.50;97.60;;;;;;4901019;29;20024;-86
2022/09/22 16:56:18;;;;;;;11.35;7.47;;;14.40;97.50;;;;;;4900845;29;20059;-87
2022/09/22 16:58:44;;;;;;;22.98;14.13;;;14.30;98.60;;;;;;4900975;29;20031;-87
2022/09/22 17:01:14;;;;;;;23.90;11.77;;;14.20;99.70;;;;;;4900594;29;20032;-87
2022/09/22 17:03:43;;;;;;;27.63;13.77;;;14.20;99.90;;;;;;4916446;29;20024;-85
2022/09/22 17:06:12;;;;;;;22.30;12.65;;;14.20;99.90;;;;;;4900109;29;20028;-87
2022/09/22 17:08:42;;;;;;;31.17;19.63;;;14.10;99.90;;;;;;4917698;29;20024;-89
2022/09/22 17:11:12;;;;;;;40.47;22.52;;;14.10;99.90;;;;;;4917381;29;20075;-88
2022/09/22 17:13:42;;;;;;;40.70;24.55;;;14.00;99.90;;;;;;4900746;29;20364;-87
2022/09/22 17:16:17;;;;;;;40.72;26.13;;;14.10;99.90;;;;;;4917485;29;20027;-86
2022/09/22 17:18:46;;;;;;;67.63;40.72;;;14.00;99.90;;;;;;4900523;29;20052;-88
2022/09/22 17:21:12;;;;;;;68.05;43.42;;;14.00;99.90;;;;;;4900354;29;20069;-87
2022/09/22 17:23:39;;;;;;;24.17;14.68;;;13.90;99.90;;;;;;4900704;29;20028;-88
2022/09/22 17:26:11;;;;;;;20.58;13.43;;;13.90;99.90;;;;;;4900206;29;20024;-88
2022/09/22 17:28:37;;;;;;;31.35;20.45;;;13.90;99.90;;;;;;4900695;29;20024;-88
2022/09/22 17:31:07;;;;;;;35.90;22.88;;;13.80;99.90;;;;;;4899545;29;20464;-88
2022/09/22 17:33:35;;;;;;;73.30;39.60;;;13.80;99.90;;;;;;4899983;29;20073;-86
2022/09/22 17:36:03;;;;;;;62.45;36.53;;;13.70;99.90;;;;;;4899633;29;20135;-86
2022/09/22 17:38:33;;;;;;;111.45;57.85;;;13.70;99.90;;;;;;4900494;29;20364;-87
2022/09/22 17:41:20;;;;;;;123.32;59.70;;;13.60;99.90;;;;;;4917674;29;20163;-86
2022/09/22 17:44:01;;;;;;;109.38;53.30;;;13.60;99.90;;;;;;4900190;29;20052;-87
2022/09/22 17:46:36;;;;;;;148.25;71.68;;;13.50;99.90;;;;;;4899967;29;20066;-88
2022/09/22 17:55:07;;;;;;;192.50;83.30;;;13.40;99.90;;;;;;4917087;29;20546;-86
2022/09/22 17:57:38;;;;;;;182.95;81.13;;;13.40;99.90;;;;;;4900144;29;20028;-88
2022/09/22 18:00:07;;;;;;;220.18;100.53;;;13.30;99.90;;;;;;4900048;29;20455;-88
2022/09/22 18:02:37;;;;;;;199.80;91.63;;;13.30;99.90;;;;;;4900093;29;20036;-88
2022/09/22 18:05:11;;;;;;;169.02;77.13;;;13.30;99.90;;;;;;4900011;29;20028;-87
2022/09/22 18:07:38;;;;;;;105.25;50.97;;;13.30;99.90;;;;;;4899945;29;20024;-87
2022/09/22 18:10:09;;;;;;;84.32;41.90;;;13.30;99.90;;;;;;4899506;29;20119;-86
2022/09/22 18:12:35;;;;;;;81.97;40.63;;;13.30;99.90;;;;;;4900193;29;20042;-86
2022/09/22 18:15:02;;;;;;;95.57;44.95;;;13.30;99.90;;;;;;4899813;29;20455;-88
2022/09/22 18:17:31;;;;;;;110.35;50.30;;;13.20;99.90;;;;;;4902574;29;20079;-88
2022/09/22 18:20:20;;;;;;;120.18;57.25;;;13.20;99.90;;;;;;4900119;29;20032;-88
2022/09/22 18:22:47;;;;;;;171.10;78.22;;;13.10;99.90;;;;;;4902235;29;20424;-87
2022/09/22 18:25:27;;;;;;;167.75;75.68;;;13.10;99.90;;;;;;4902281;29;20032;-87
2022/09/22 18:27:53;;;;;;;171.63;77.40;;;13.00;99.90;;;;;;4903321;29;20036;-86
2022/09/22 18:30:19;;;;;;;180.35;75.90;;;12.90;99.90;;;;;;4903274;29;20353;-88
2022/09/22 18:32:46;;;;;;;164.93;70.60;;;12.90;99.90;;;;;;4903597;29;20460;-86
2022/09/22 18:35:12;;;;;;;162.75;66.80;;;12.90;99.90;;;;;;4902944;29;20048;-88
2022/09/22 18:37:38;;;;;;;155.20;66.40;;;12.90;99.90;;;;;;4920558;29;20114;-85
2022/09/22 18:40:04;;;;;;;207.38;97.32;;;12.90;99.90;;;;;;4903150;29;20028;-88
2022/09/22 18:42:31;;;;;;;224.25;100.18;;;12.80;99.90;;;;;;4903044;29;20024;-86
2022/09/22 19:22:55;;;;;;;62.28;32.78;;;11.70;99.90;;;;;;4770490;30;20109;-87
2022/09/22 19:25:21;;;;;;;163.25;60.97;;;11.70;99.90;;;;;;4755233;30;20035;-88
2022/09/22 19:27:47;;;;;;;122.30;49.20;;;11.70;99.90;;;;;;4769759;30;20067;-87
2022/09/22 19:30:28;;;;;;;65.18;32.40;;;11.70;99.90;;;;;;4755047;30;20048;-89
2022/09/22 19:32:53;;;;;;;56.72;28.70;;;11.80;99.90;;;;;;4752985;30;20036;-89
2022/09/22 19:35:20;;;;;;;80.68;34.47;;;11.80;99.90;;;;;;4754846;30;20050;-88
2022/09/22 19:37:46;;;;;;;91.28;38.67;;;11.80;99.90;;;;;;4755155;30;20043;-90
2022/09/22 19:40:18;;;;;;;88.47;37.28;;;11.80;99.90;;;;;;4769910;30;20108;-89
2022/09/22 19:43:23;;;;;;;76.85;34.53;;;11.90;99.90;;;;;;4758103;30;20046;-88
2022/09/22 19:45:52;;;;;;;63.28;31.10;;;11.90;99.90;;;;;;4788065;30;20038;-90
2022/09/22 19:48:20;;;;;;;61.47;31.10;;;11.90;99.90;;;;;;4839943;29;20041;-90
2022/09/22 19:50:48;;;;;;;52.60;28.38;;;11.90;99.90;;;;;;4873832;29;20043;-87
2022/09/22 19:53:27;;;;;;;59.53;30.42;;;11.90;99.90;;;;;;4901828;29;20046;-87
2022/09/22 19:56:06;;;;;;;63.65;31.38;;;11.90;99.90;;;;;;4901819;29;20357;-87
2022/09/22 19:58:35;;;;;;;39.08;22.95;;;11.80;99.90;;;;;;4901976;29;20072;-89
2022/09/22 20:01:03;;;;;;;34.15;21.33;;;11.90;99.90;;;;;;4902044;29;20124;-86
2022/09/22 20:03:29;;;;;;;40.17;23.38;;;11.80;99.90;;;;;;4901792;29;20117;-88
2022/09/22 20:05:55;;;;;;;40.10;23.10;;;11.80;99.90;;;;;;4901670;29;20110;-87
2022/09/22 20:08:21;;;;;;;34.97;20.80;;;11.80;99.90;;;;;;4918827;29;20071;-87
2022/09/22 20:10:56;;;;;;;36.15;20.13;;;11.70;99.90;;;;;;4901300;29;20055;-87
2022/09/22 21:20:36;;;;;;;48.38;26.45;;;10.80;99.90;;;;;;4845935;29;20086;-87
2022/09/22 21:33:17;;;;;;;44.20;25.75;;;10.70;99.90;;;;;;4847484;29;20102;-88
2022/09/22 21:36:34;;;;;;;45.40;24.33;;;10.60;99.90;;;;;;4858946;29;20457;-87
2022/09/22 21:42:36;;;;;;;37.78;21.40;;;10.40;99.90;;;;;;4917004;29;20460;-87
2022/09/22 21:51:42;;;;;;;24.45;15.52;;;10.30;99.90;;;;;;4886642;29;20079;-86
2022/09/22 21:58:18;;;;;;;23.23;15.23;;;10.20;99.90;;;;;;4840159;29;20061;-87
2022/09/22 22:01:34;;;;;;;29.58;16.40;;;10.10;99.90;;;;;;4804279;29;20047;-86
2022/09/22 22:04:52;;;;;;;;;;;;;;;;;;;;;
2022/09/22 22:11:28;;;;;;;21.98;14.18;;;10.10;99.90;;;;;;4804013;29;20471;-86
2022/09/22 22:45:37;;;;;;;41.97;23.90;;;10.00;99.90;;;;;;4882203;29;20552;-88
2022/09/22 22:49:00;;;;;;;39.60;23.20;;;10.00;99.90;;;;;;4911779;29;20087;-87
2022/09/22 22:52:43;;;;;;;;;;;;;;;;;;;;;
2022/09/22 23:02:55;;;;;;;31.60;19.50;;;10.00;99.90;;;;;;4785434;29;20026;-87
2022/09/22 23:05:21;;;;;;;25.35;15.77;;;9.90;99.90;;;;;;4717474;30;20041;-88
2022/09/22 23:07:46;;;;;;;29.65;15.43;;;9.90;99.90;;;;;;4717997;30;20029;-89
2022/09/22 23:10:12;;;;;;;24.08;14.57;;;9.90;99.90;;;;;;4701602;30;20072;-87
2022/09/22 23:12:39;;;;;;;25.40;16.23;;;9.90;99.90;;;;;;4714090;30;20037;-88
2022/09/22 23:15:08;;;;;;;22.65;14.07;;;9.90;99.90;;;;;;4701442;30;20048;-86
2022/09/22 23:17:38;;;;;;;30.05;17.50;;;9.90;99.90;;;;;;4710174;30;20069;-86
